Time;durP1;ratioP1;P1;durP2;ratioP2;P2;SDS_P1;SDS_P2;PMS_P1;PMS_P2;Temp;Humidity;BMP_temperature;BMP_pressure;BME280_temperature;BME280_humidity;BME280_pressure;Samples;Min_cycle;Max_cycle;Signal;HPM_P1;HPM_P2
2022/03/14 00:01:22;;;;;;;8.07;5.60;;;;;;;22.08;31.54;101730.78;5010801;28;20049;-67
2022/03/14 00:03:53;;;;;;;7.70;5.60;;;;;;;22.00;31.41;101728.13;5009087;28;20060;-67
2022/03/14 00:06:19;;;;;;;7.95;5.50;;;;;;;21.89;31.72;101704.63;5012466;28;20495;-67
2022/03/14 00:08:45;;;;;;;9.68;5.20;;;;;;;22.01;31.72;101745.72;5009590;28;20102;-67
2022/03/14 00:11:14;;;;;;;8.02;5.07;;;;;;;21.98;31.65;101746.88;5006625;28;20779;-67
2022/03/14 00:13:43;;;;;;;9.32;5.82;;;;;;;21.95;31.65;101754.34;5010650;28;20064;-67
2022/03/14 00:16:10;;;;;;;8.52;5.47;;;;;;;21.94;31.70;101744.75;5006324;28;20104;-67
2022/03/14 00:18:36;;;;;;;8.30;5.35;;;;;;;21.91;31.57;101753.06;5011748;28;20135;-67
2022/03/14 00:21:05;;;;;;;6.40;4.70;;;;;;;21.79;31.62;101751.75;5011826;28;20037;-67
2022/03/14 00:23:30;;;;;;;6.30;4.60;;;;;;;21.86;31.71;101763.31;5012980;28;20092;-66
2022/03/14 00:25:57;;;;;;;6.20;4.65;;;;;;;21.87;31.84;101770.28;5011139;28;20038;-67
2022/03/14 00:28:22;;;;;;;6.68;4.90;;;;;;;21.78;31.73;101764.19;5008711;28;20641;-66
2022/03/14 00:30:49;;;;;;;8.10;4.57;;;;;;;21.82;31.65;101764.66;5008768;28;20157;-67
2022/03/14 00:33:14;;;;;;;7.70;4.63;;;;;;;21.80;31.74;101774.63;5011094;28;20049;-68
2022/03/14 00:35:40;;;;;;;7.82;5.28;;;;;;;21.77;32.17;101781.09;5011441;28;20087;-68
2022/03/14 00:38:06;;;;;;;6.05;5.18;;;;;;;21.78;31.75;101782.75;5007204;28;20467;-68
2022/03/14 00:40:32;;;;;;;7.38;5.15;;;;;;;21.64;31.88;101762.22;5009455;28;20037;-68
2022/03/14 00:42:59;;;;;;;6.30;4.55;;;;;;;21.54;31.78;101756.28;5010050;28;20048;-67
2022/03/14 00:45:25;;;;;;;8.10;5.35;;;;;;;21.72;31.69;101791.34;4997153;28;20069;-67
2022/03/14 00:47:51;;;;;;;6.72;4.60;;;;;;;21.69;32.11;101783.75;5010333;28;20499;-68
2022/03/14 00:50:17;;;;;;;7.13;4.93;;;;;;;21.68;31.75;101790.03;5008368;28;20679;-68
2022/03/14 00:52:42;;;;;;;6.88;4.60;;;;;;;21.63;31.95;101769.34;5024112;28;20052;-68
2022/03/14 00:55:08;;;;;;;7.90;4.80;;;;;;;21.60;32.04;101775.00;5010733;28;20044;-67
2022/03/14 00:57:34;;;;;;;6.43;4.82;;;;;;;21.64;32.11;101788.72;5010499;28;20041;-67
2022/03/14 01:00:00;;;;;;;6.30;4.50;;;;;;;21.56;32.27;101786.09;5010107;28;20036;-67
2022/03/14 01:02:26;;;;;;;6.10;4.72;;;;;;;21.59;32.27;101796.38;5011410;28;20041;-67
2022/03/14 01:04:51;;;;;;;6.35;4.60;;;;;;;21.58;32.04;101786.75;5008416;28;20041;-68
2022/03/14 01:07:17;;;;;;;7.97;4.63;;;;;;;21.53;32.28;101794.38;5011727;28;20046;-67
2022/03/14 01:09:43;;;;;;;6.82;4.55;;;;;;;21.49;31.93;101796.53;5007218;28;20396;-67
2022/03/14 01:12:08;;;;;;;6.57;4.68;;;;;;;21.51;32.00;101801.66;5010490;28;20054;-68
2022/03/14 01:14:34;;;;;;;6.65;4.80;;;;;;;21.49;32.00;101793.06;5006976;28;20030;-67
2022/03/14 01:17:00;;;;;;;7.22;4.72;;;;;;;21.38;32.09;101781.81;5006005;28;20052;-68
2022/03/14 01:19:26;;;;;;;7.35;4.75;;;;;;;21.44;32.30;101803.34;5006069;28;20037;-67
2022/03/14 01:21:51;;;;;;;5.60;4.40;;;;;;;21.42;32.21;101798.22;5004989;28;20069;-67
2022/03/14 01:24:17;;;;;;;5.78;4.45;;;;;;;21.42;32.01;101803.50;5007070;28;20052;-67
2022/03/14 01:26:44;;;;;;;6.00;4.15;;;;;;;21.42;32.23;101808.81;5012660;28;20040;-67
2022/03/14 01:29:10;;;;;;;5.93;4.30;;;;;;;21.41;32.20;101799.19;5007633;28;20053;-67
2022/03/14 01:31:36;;;;;;;6.63;4.60;;;;;;;21.22;32.31;101779.16;5013499;28;20044;-68
2022/03/14 01:34:02;;;;;;;5.15;3.97;;;;;;;21.40;32.14;101818.75;5008955;28;20037;-67
2022/03/14 01:36:27;;;;;;;5.90;4.47;;;;;;;21.30;32.19;101804.81;5013118;28;20049;-67
2022/03/14 01:38:53;;;;;;;6.13;4.25;;;;;;;21.38;32.26;101823.38;5005516;28;20037;-68
2022/03/14 01:41:19;;;;;;;6.88;4.18;;;;;;;21.36;32.31;101830.66;5008355;28;20045;-68
2022/03/14 01:43:48;;;;;;;4.90;4.28;;;;;;;21.34;32.36;101827.34;5011449;28;20128;-67
2022/03/14 01:46:16;;;;;;;6.53;4.38;;;;;;;21.33;32.12;101837.09;5009114;28;20119;-67
2022/03/14 01:48:45;;;;;;;6.80;4.35;;;;;;;21.28;32.38;101828.00;5012208;28;20604;-66
2022/03/14 01:51:12;;;;;;;5.00;3.97;;;;;;;21.29;32.49;101830.50;5013025;28;20041;-68
2022/03/14 01:53:39;;;;;;;6.32;4.47;;;;;;;21.29;32.26;101830.50;5007607;28;20111;-67
2022/03/14 01:56:05;;;;;;;6.95;4.28;;;;;;;21.26;32.36;101822.06;5004712;28;20057;-67
2022/03/14 01:58:31;;;;;;;5.80;4.07;;;;;;;21.19;32.51;101823.69;5006589;28;20070;-68
2022/03/14 02:00:56;;;;;;;6.32;3.97;;;;;;;21.18;32.51;101822.81;5010983;28;20029;-68
2022/03/14 02:03:22;;;;;;;5.82;3.85;;;;;;;21.12;32.57;101819.03;5005285;28;20800;-68
2022/03/14 02:05:48;;;;;;;5.60;4.25;;;;;;;21.16;32.64;101819.53;5007707;28;20678;-69
2022/03/14 02:08:15;;;;;;;4.95;3.92;;;;;;;21.13;32.65;101817.19;5009532;28;20558;-67
2022/03/14 02:10:40;;;;;;;5.28;3.95;;;;;;;21.11;32.43;101822.66;5014123;28;20123;-68
2022/03/14 02:13:07;;;;;;;5.85;4.03;;;;;;;21.13;32.46;101825.97;5011919;28;20046;-68
2022/03/14 02:15:35;;;;;;;5.80;4.28;;;;;;;21.11;32.59;101825.31;4997003;28;20200;-67
2022/03/14 02:18:02;;;;;;;6.00;4.03;;;;;;;21.06;32.67;101822.34;5009643;28;20049;-67
2022/03/14 02:20:27;;;;;;;4.38;3.70;;;;;;;21.07;32.65;101820.53;5016133;28;20518;-67
2022/03/14 02:22:53;;;;;;;4.57;3.40;;;;;;;20.98;32.54;101809.06;5015416;28;20038;-68
2022/03/14 02:25:19;;;;;;;4.97;3.50;;;;;;;21.01;32.86;101824.66;4995154;28;20041;-67
2022/03/14 02:27:44;;;;;;;5.75;3.90;;;;;;;21.05;32.74;101831.28;5014332;28;20348;-67
2022/03/14 02:30:10;;;;;;;6.03;3.70;;;;;;;21.05;32.81;101833.91;5014197;28;20054;-67
2022/03/14 02:32:41;;;;;;;;;;;;;;;21.05;32.77;101841.88;5010747;28;20083;-67
2022/03/14 02:35:09;;;;;;;5.18;3.90;;;;;;;21.01;32.79;101832.59;5010432;28;20011;-68
2022/03/14 02:37:36;;;;;;;6.80;3.85;;;;;;;21.04;32.67;101834.91;5012383;28;20053;-67
2022/03/14 02:40:02;;;;;;;4.82;3.38;;;;;;;20.97;32.58;101828.59;5013137;28;20088;-68
2022/03/14 02:42:28;;;;;;;5.20;3.83;;;;;;;21.04;32.53;101837.56;5015107;28;20541;-68
2022/03/14 02:44:53;;;;;;;6.88;3.75;;;;;;;20.99;32.76;101844.31;5010525;28;20041;-68
2022/03/14 02:47:20;;;;;;;4.90;3.80;;;;;;;21.02;32.45;101849.31;5013470;28;20037;-67
2022/03/14 02:49:46;;;;;;;5.07;3.50;;;;;;;21.02;32.82;101849.31;5009805;28;20050;-67
2022/03/14 02:52:11;;;;;;;5.03;3.65;;;;;;;21.02;32.76;101855.44;5012060;28;20057;-67
2022/03/14 02:54:38;;;;;;;4.93;3.72;;;;;;;21.01;32.63;101855.59;5013586;28;20071;-67
2022/03/14 02:57:05;;;;;;;5.97;3.92;;;;;;;20.95;32.75;101853.59;5010444;28;20400;-68
2022/03/14 02:59:32;;;;;;;5.15;3.75;;;;;;;20.98;32.93;101855.91;5012802;28;20466;-68
2022/03/14 03:01:58;;;;;;;3.97;3.30;;;;;;;21.00;32.69;101865.34;5012626;28;20025;-67
2022/03/14 03:04:24;;;;;;;5.63;3.55;;;;;;;20.99;32.75;101863.69;5012553;28;20045;-68
2022/03/14 03:06:49;;;;;;;5.10;3.78;;;;;;;20.97;32.74;101864.84;5013736;28;20450;-67
2022/03/14 03:09:15;;;;;;;4.45;3.35;;;;;;;20.97;32.77;101870.13;5013157;28;20040;-67
2022/03/14 03:11:41;;;;;;;5.43;3.70;;;;;;;20.97;32.71;101878.91;5008406;28;20037;-68
2022/03/14 03:14:07;;;;;;;5.28;3.58;;;;;;;20.97;32.83;101886.84;5012822;28;20057;-69
2022/03/14 03:16:34;;;;;;;4.40;3.35;;;;;;;20.94;32.85;101881.88;5013524;28;20411;-67
2022/03/14 03:19:00;;;;;;;5.07;3.45;;;;;;;20.95;32.85;101888.00;5011477;28;20062;-67
2022/03/14 03:21:26;;;;;;;5.43;3.33;;;;;;;20.97;32.85;101891.31;5007623;28;20048;-67
2022/03/14 03:23:53;;;;;;;5.10;3.38;;;;;;;20.96;32.93;101887.84;5007894;28;20439;-68
2022/03/14 03:26:21;;;;;;;3.00;2.70;;;;;;;20.92;32.91;101880.41;5015105;28;20487;-68
2022/03/14 03:28:47;;;;;;;4.20;3.53;;;;;;;20.95;32.70;101888.84;5014439;28;20148;-66
2022/03/14 03:31:21;;;;;;;4.40;3.53;;;;;;;20.94;32.85;101900.41;5008187;28;20507;-68
2022/03/14 03:33:48;;;;;;;4.10;3.03;;;;;;;20.92;32.77;101890.97;5008821;28;20120;-67
2022/03/14 03:36:14;;;;;;;5.57;3.45;;;;;;;20.89;33.11;101894.78;5010195;28;20034;-69
2022/03/14 03:38:40;;;;;;;5.30;3.58;;;;;;;20.94;32.86;101902.25;5009857;28;20380;-70
2022/03/14 03:41:07;;;;;;;4.10;3.20;;;;;;;20.93;32.89;101898.75;5010885;28;20037;-70
2022/03/14 03:43:33;;;;;;;4.53;3.67;;;;;;;20.91;32.68;101889.31;5012555;28;20145;-70
2022/03/14 03:45:58;;;;;;;4.13;3.15;;;;;;;20.78;32.87;101873.88;4999991;28;20041;-69
2022/03/14 03:48:24;;;;;;;5.35;3.75;;;;;;;20.92;32.91;101902.41;5011425;28;21559;-70
2022/03/14 03:50:50;;;;;;;4.10;3.10;;;;;;;20.92;32.95;101897.09;5010038;28;20046;-68
2022/03/14 03:53:17;;;;;;;3.90;3.03;;;;;;;20.85;32.92;101893.47;5013708;28;20041;-69
2022/03/14 03:55:43;;;;;;;4.90;3.05;;;;;;;20.91;32.83;101906.03;5011825;28;20033;-69
2022/03/14 03:58:08;;;;;;;4.20;3.08;;;;;;;20.89;32.92;101905.38;5014151;28;20041;-69
2022/03/14 04:00:34;;;;;;;5.28;3.22;;;;;;;20.88;33.00;101898.44;5011751;28;20037;-70
2022/03/14 04:03:00;;;;;;;4.95;3.10;;;;;;;20.90;33.00;101906.22;5011243;28;20042;-70
2022/03/14 04:05:27;;;;;;;3.97;2.97;;;;;;;20.87;32.92;101904.72;5011661;28;20045;-70
2022/03/14 04:07:57;;;;;;;3.63;2.97;;;;;;;20.83;33.08;101899.91;5010296;28;20091;-70
2022/03/14 04:10:27;;;;;;;;;;;;;;;20.84;32.94;101904.22;5013045;28;20111;-70
2022/03/14 04:12:53;;;;;;;3.88;2.88;;;;;;;20.76;32.98;101902.34;5008923;28;20331;-69
2022/03/14 04:15:22;;;;;;;3.75;3.03;;;;;;;20.83;32.95;101934.31;5012697;28;20029;-70
2022/03/14 04:17:48;;;;;;;3.60;3.00;;;;;;;20.80;32.87;101946.03;5007994;28;20053;-70
2022/03/14 04:20:13;;;;;;;4.20;2.80;;;;;;;20.67;33.15;101927.13;5009371;28;20091;-69
2022/03/14 04:22:40;;;;;;;5.43;3.22;;;;;;;20.76;33.13;101944.69;5013509;28;20125;-70
2022/03/14 04:25:07;;;;;;;4.22;2.97;;;;;;;20.73;33.14;101951.16;5014491;28;20041;-69
2022/03/14 04:27:33;;;;;;;3.72;2.92;;;;;;;20.70;33.22;101955.94;5011130;28;20148;-69
2022/03/14 04:29:59;;;;;;;4.95;3.13;;;;;;;20.66;33.22;101947.47;5008004;28;20074;-69
2022/03/14 04:32:26;;;;;;;3.35;2.83;;;;;;;20.64;33.38;101953.91;5008363;28;20781;-70
2022/03/14 04:34:52;;;;;;;4.30;3.35;;;;;;;20.63;33.37;101960.19;5005928;28;20073;-69
2022/03/14 04:37:19;;;;;;;4.32;3.00;;;;;;;20.60;33.32;101957.84;5009079;28;20827;-70
2022/03/14 04:39:45;;;;;;;3.95;2.85;;;;;;;20.48;33.56;101950.19;5004397;28;20053;-69
2022/03/14 04:42:11;;;;;;;3.97;3.05;;;;;;;20.56;33.46;101975.88;5010051;28;20053;-69
2022/03/14 04:44:37;;;;;;;4.05;2.78;;;;;;;20.56;33.58;101978.50;5009632;28;20041;-70
2022/03/14 04:47:03;;;;;;;3.80;2.83;;;;;;;20.57;33.53;101974.03;5011110;28;20054;-70
2022/03/14 04:49:29;;;;;;;4.13;2.80;;;;;;;20.54;33.46;101984.94;5007073;28;20056;-70
2022/03/14 04:51:55;;;;;;;3.78;3.00;;;;;;;20.48;33.34;101981.94;5008451;28;20026;-69
2022/03/14 04:54:24;;;;;;;3.17;2.80;;;;;;;20.52;33.50;101991.22;5007711;28;20530;-70
2022/03/14 04:56:49;;;;;;;3.15;2.80;;;;;;;20.52;33.60;102000.97;5007384;28;20033;-69
2022/03/14 04:59:15;;;;;;;3.30;2.60;;;;;;;20.52;33.53;101991.22;5006488;28;20062;-69
2022/03/14 05:01:41;;;;;;;3.75;3.00;;;;;;;20.55;33.58;102002.47;5010256;28;20038;-70
2022/03/14 05:04:07;;;;;;;3.63;2.70;;;;;;;20.53;33.57;102007.94;5009024;28;20065;-69
2022/03/14 05:06:33;;;;;;;2.70;2.40;;;;;;;20.54;33.50;102006.13;5009265;28;20664;-68
2022/03/14 05:08:59;;;;;;;3.90;2.60;;;;;;;20.39;33.43;101982.84;5011130;28;20139;-68
2022/03/14 05:11:25;;;;;;;3.60;2.85;;;;;;;20.52;33.50;102011.56;5009037;28;20041;-69
2022/03/14 05:13:52;;;;;;;2.95;2.65;;;;;;;20.52;33.39;102020.34;5008987;28;20032;-70
2022/03/14 05:16:18;;;;;;;3.50;2.63;;;;;;;20.52;33.46;102020.34;5009642;28;20060;-69
2022/03/14 05:18:43;;;;;;;3.45;2.50;;;;;;;20.49;33.46;102020.66;5011598;28;20445;-70
2022/03/14 05:21:09;;;;;;;3.83;2.80;;;;;;;20.53;33.50;102031.75;5010337;28;20053;-70
2022/03/14 05:23:38;;;;;;;2.80;2.55;;;;;;;20.47;33.54;102027.91;5010333;28;20729;-70
2022/03/14 05:26:04;;;;;;;3.40;2.83;;;;;;;20.44;33.59;102028.22;5013108;28;20047;-69
2022/03/14 05:28:30;;;;;;;4.00;2.88;;;;;;;20.44;33.63;102036.13;5015082;28;20160;-70
2022/03/14 05:30:56;;;;;;;3.33;2.95;;;;;;;20.43;33.66;102038.94;5009900;28;20042;-70
2022/03/14 05:33:22;;;;;;;3.03;2.47;;;;;;;20.38;33.66;102038.56;5007920;28;20390;-69
2022/03/14 05:35:48;;;;;;;3.50;3.03;;;;;;;20.39;33.82;102037.56;5005569;28;20838;-70
2022/03/14 05:38:14;;;;;;;3.72;2.50;;;;;;;20.38;33.74;102046.50;5004793;28;20053;-70
2022/03/14 05:40:40;;;;;;;3.55;2.67;;;;;;;20.34;33.82;102047.78;5007439;28;20098;-70
2022/03/14 05:43:07;;;;;;;3.00;2.50;;;;;;;20.32;33.90;102047.94;5011221;28;20029;-69
2022/03/14 05:45:33;;;;;;;2.95;2.47;;;;;;;20.29;33.97;102042.09;5007040;28;20440;-69
2022/03/14 05:47:58;;;;;;;3.05;2.47;;;;;;;20.27;33.92;102050.19;5008911;28;20048;-68
2022/03/14 05:50:24;;;;;;;3.45;2.78;;;;;;;20.29;33.97;102053.53;5008690;28;20049;-70
2022/03/14 05:52:53;;;;;;;3.35;2.60;;;;;;;20.30;33.94;102055.22;5009365;28;20065;-69
2022/03/14 05:55:18;;;;;;;3.80;2.58;;;;;;;20.30;33.88;102057.84;5009562;28;20095;-70
2022/03/14 05:57:45;;;;;;;3.13;2.30;;;;;;;20.19;33.80;102042.22;5012779;28;20510;-69
2022/03/14 06:00:12;;;;;;;3.70;2.60;;;;;;;20.31;34.07;102061.31;5009713;28;20049;-70
2022/03/14 06:02:48;;;;;;;3.67;2.47;;;;;;;20.31;34.03;102064.81;5009589;28;20034;-69
2022/03/14 06:05:14;;;;;;;3.33;2.50;;;;;;;20.31;34.01;102071.91;5009902;28;20484;-69
2022/03/14 06:07:40;;;;;;;3.45;2.60;;;;;;;20.31;34.09;102071.91;5007284;28;20534;-69
2022/03/14 06:10:07;;;;;;;3.08;2.60;;;;;;;20.33;34.03;102070.75;5010381;28;20041;-70
2022/03/14 06:12:33;;;;;;;2.78;2.40;;;;;;;20.34;34.21;102083.00;5005525;28;20050;-69
2022/03/14 06:15:00;;;;;;;3.10;2.53;;;;;;;20.45;33.88;102089.88;5010021;28;20087;-69
2022/03/14 06:17:26;;;;;;;3.13;2.40;;;;;;;20.69;33.54;102089.25;5012177;28;20051;-69
2022/03/14 06:19:53;;;;;;;5.20;2.47;;;;;;;21.37;32.72;102092.81;5010077;28;20119;-69
2022/03/14 06:22:20;;;;;;;3.40;2.58;;;;;;;21.98;31.69;102085.53;5012266;28;21561;-70
2022/03/14 06:24:47;;;;;;;3.05;2.42;;;;;;;22.38;31.25;102081.28;5010156;28;20038;-70
2022/03/14 06:27:24;;;;;;;2.50;2.30;;;;;;;22.56;30.82;102097.84;5009357;28;20066;-69
2022/03/14 06:29:50;;;;;;;2.53;2.10;;;;;;;22.53;31.04;102104.31;5009437;28;20062;-70
2022/03/14 06:32:15;;;;;;;2.78;2.28;;;;;;;22.48;31.16;102109.31;5011916;28;20073;-69
2022/03/14 06:34:42;;;;;;;3.47;2.70;;;;;;;22.31;31.38;102094.38;5007476;28;20120;-69
2022/03/14 06:37:08;;;;;;;3.72;2.45;;;;;;;22.29;31.74;102118.44;5010160;28;20777;-69
2022/03/14 06:39:38;;;;;;;2.70;2.15;;;;;;;22.17;32.03;102114.44;5002141;28;20129;-70
2022/03/14 06:42:09;;;;;;;2.95;2.20;;;;;;;22.07;31.82;102124.34;5013922;28;20033;-69
2022/03/14 06:44:41;;;;;;;2.25;2.00;;;;;;;21.88;32.45;102122.78;5009102;28;20041;-69
2022/03/14 06:47:12;;;;;;;3.28;2.40;;;;;;;21.82;32.66;102127.94;5012341;28;20147;-70
2022/03/14 06:49:39;;;;;;;2.55;2.15;;;;;;;21.72;32.74;102130.69;5004921;28;20064;-70
2022/03/14 06:52:05;;;;;;;2.63;2.20;;;;;;;21.58;32.84;102134.81;5007498;28;20037;-70
2022/03/14 06:54:31;;;;;;;2.75;2.25;;;;;;;21.51;32.98;102135.59;5005302;28;20040;-70
2022/03/14 06:56:57;;;;;;;3.08;2.20;;;;;;;21.48;33.01;102146.50;5012276;28;20052;-69
2022/03/14 06:59:22;;;;;;;2.55;2.15;;;;;;;21.44;33.20;102147.81;5015427;28;20037;-70
2022/03/14 07:01:48;;;;;;;2.63;2.20;;;;;;;21.61;33.15;102158.34;5009365;28;20029;-69
2022/03/14 07:04:13;;;;;;;2.95;2.13;;;;;;;22.01;32.55;102160.28;5012158;28;20034;-70
2022/03/14 07:06:39;;;;;;;2.80;2.00;;;;;;;22.37;32.07;102157.41;5001264;28;20050;-70
2022/03/14 07:09:05;;;;;;;2.83;2.13;;;;;;;22.58;31.47;102162.22;5000504;28;20048;-69
2022/03/14 07:11:31;;;;;;;2.53;2.08;;;;;;;22.62;31.49;102163.53;5007886;28;20046;-69
2022/03/14 07:13:58;;;;;;;2.45;2.25;;;;;;;22.52;31.86;102170.84;5008757;28;20038;-70
2022/03/14 07:16:23;;;;;;;2.58;2.28;;;;;;;22.39;31.83;102167.84;5010659;28;20044;-70
2022/03/14 07:18:49;;;;;;;3.35;2.40;;;;;;;22.27;32.02;102168.19;5011945;28;20060;-70
2022/03/14 07:21:17;;;;;;;2.53;1.90;;;;;;;22.11;32.31;102162.84;5011898;28;20530;-69
2022/03/14 07:23:44;;;;;;;2.67;2.10;;;;;;;22.09;32.46;102180.75;5012715;28;20034;-70
2022/03/14 07:26:09;;;;;;;3.35;2.10;;;;;;;21.97;32.83;102177.53;5009354;28;20042;-69
2022/03/14 07:28:35;;;;;;;2.33;1.70;;;;;;;21.87;33.16;102178.66;5008809;28;20529;-70
2022/03/14 07:31:01;;;;;;;2.72;2.08;;;;;;;21.82;33.12;102180.97;5011454;28;20128;-70
2022/03/14 07:33:28;;;;;;;2.17;1.95;;;;;;;21.74;33.16;102187.06;5008910;28;20045;-69
2022/03/14 07:35:54;;;;;;;2.22;1.90;;;;;;;21.65;33.21;102180.88;5011125;28;20575;-69
2022/03/14 07:38:20;;;;;;;2.55;2.10;;;;;;;21.68;33.44;102182.38;5003385;28;20037;-68
2022/03/14 07:40:45;;;;;;;2.85;2.13;;;;;;;21.66;33.18;102193.16;5006711;28;20634;-70
2022/03/14 07:43:12;;;;;;;2.40;2.10;;;;;;;21.69;33.19;102194.66;5010256;28;20033;-70
2022/03/14 07:45:38;;;;;;;2.05;1.80;;;;;;;21.66;33.37;102194.97;5011975;28;20697;-69
2022/03/14 07:48:04;;;;;;;3.10;2.10;;;;;;;21.70;33.35;102202.44;4998550;28;20037;-69
2022/03/14 07:50:30;;;;;;;3.08;2.08;;;;;;;21.69;33.57;102202.59;5012048;28;20048;-68
2022/03/14 07:52:56;;;;;;;2.40;1.90;;;;;;;21.69;33.32;102200.78;5011195;28;20150;-69
2022/03/14 07:55:22;;;;;;;2.08;1.88;;;;;;;21.63;33.26;102198.78;5011677;28;20040;-70
2022/03/14 07:57:48;;;;;;;1.85;1.67;;;;;;;21.67;33.41;102212.53;5008669;28;20040;-70
2022/03/14 08:00:18;;;;;;;2.33;1.85;;;;;;;21.66;33.19;102208.22;5009154;28;20120;-69
2022/03/14 08:02:47;;;;;;;2.42;2.13;;;;;;;21.70;33.09;102215.69;5010443;28;20570;-69
2022/03/14 08:05:15;;;;;;;1.92;1.80;;;;;;;21.73;33.45;102211.94;5007892;28;20502;-69
2022/03/14 08:07:46;;;;;;;3.15;1.98;;;;;;;21.88;32.90;102220.09;5007685;28;20041;-70
2022/03/14 08:10:15;;;;;;;2.20;1.88;;;;;;;21.89;33.14;102221.75;5011458;28;20677;-67
2022/03/14 08:12:55;;;;;;;1.67;1.58;;;;;;;21.88;32.94;102215.59;5008202;28;20109;-66
2022/03/14 08:15:31;;;;;;;2.65;1.75;;;;;;;21.79;33.15;102221.88;5013347;28;20207;-68
2022/03/14 08:18:02;;;;;;;2.05;1.85;;;;;;;21.80;33.29;102222.72;5010003;28;20040;-69
2022/03/14 08:20:29;;;;;;;1.95;1.75;;;;;;;21.76;33.46;102224.84;5013341;28;20045;-69
2022/03/14 08:22:57;;;;;;;2.45;1.80;;;;;;;21.71;33.35;102227.13;5011879;28;20033;-69
2022/03/14 08:25:27;;;;;;;2.13;1.80;;;;;;;21.69;33.18;102231.75;5012272;28;20033;-69
2022/03/14 08:27:53;;;;;;;2.17;1.88;;;;;;;21.72;33.15;102239.41;5009314;28;20037;-69
2022/03/14 08:30:23;;;;;;;2.17;1.90;;;;;;;21.69;33.49;102237.06;5001409;28;20471;-69
2022/03/14 08:32:49;;;;;;;;;;;;;;;21.74;33.75;102241.91;5017260;28;20034;-73
2022/03/14 08:35:17;;;;;;;3.38;2.30;;;;;;;21.56;34.50;102245.47;5016226;28;19921;-73
2022/03/14 08:37:44;;;;;;;2.33;1.90;;;;;;;21.19;34.85;102197.19;5013011;28;20049;-73
2022/03/14 08:40:13;;;;;;;2.25;1.80;;;;;;;21.39;34.82;102247.19;5015538;28;20040;-73
2022/03/14 08:42:40;;;;;;;4.65;2.25;;;;;;;21.34;34.85;102244.16;5000366;28;20038;-73
2022/03/14 08:45:08;;;;;;;2.80;1.83;;;;;;;21.57;34.40;102255.09;5014374;28;20049;-74
2022/03/14 08:47:34;;;;;;;2.97;2.30;;;;;;;21.66;34.68;102258.59;5009555;28;20049;-73
2022/03/14 08:50:02;;;;;;;2.67;2.15;;;;;;;22.08;33.80;102263.13;5015702;28;20590;-73
2022/03/14 08:52:28;;;;;;;2.65;1.70;;;;;;;22.37;33.23;102260.91;5015060;28;20049;-73
2022/03/14 08:54:55;;;;;;;4.07;2.35;;;;;;;22.64;32.90;102265.13;5009149;28;20577;-73
2022/03/14 08:57:21;;;;;;;7.13;2.03;;;;;;;22.79;32.47;102263.47;5012115;28;20403;-73
2022/03/14 08:59:46;;;;;;;2.65;1.80;;;;;;;22.67;32.66;102230.28;5028656;28;20038;-74
2022/03/14 09:02:12;;;;;;;2.70;2.10;;;;;;;;;;5013007;28;21122;-73
2022/03/14 09:04:38;;;;;;;3.20;2.30;;;;;;;22.39;33.10;102244.81;5010743;28;20355;-73
2022/03/14 09:07:06;;;;;;;2.28;2.08;;;;;;;22.28;33.41;102245.97;5015726;28;20029;-73
2022/03/14 09:09:32;;;;;;;4.50;2.22;;;;;;;22.27;33.21;102263.72;5007348;28;20053;-73
2022/03/14 09:11:58;;;;;;;4.28;2.10;;;;;;;22.00;33.68;102237.38;5012911;28;20044;-73
2022/03/14 09:14:24;;;;;;;3.20;2.13;;;;;;;22.11;33.97;102273.44;5015646;28;20822;-73
2022/03/14 09:16:51;;;;;;;3.97;1.95;;;;;;;21.98;34.07;102268.53;5009498;28;20129;-73
2022/03/14 09:19:17;;;;;;;3.30;1.90;;;;;;;21.91;34.17;102276.31;5004880;28;20557;-73
2022/03/14 09:21:43;;;;;;;3.70;2.15;;;;;;;21.78;34.18;102273.25;5009399;28;20073;-73
2022/03/14 09:24:12;;;;;;;2.35;1.70;;;;;;;21.54;34.39;102247.41;5012742;28;20037;-73
2022/03/14 09:26:37;;;;;;;3.47;1.77;;;;;;;21.71;34.28;102275.69;5010724;28;20048;-73
2022/03/14 09:29:04;;;;;;;2.10;1.90;;;;;;;21.74;34.30;102289.66;5006199;28;20072;-73
2022/03/14 09:31:31;;;;;;;3.22;1.70;;;;;;;21.65;34.61;102292.22;5009491;28;20040;-73
2022/03/14 09:33:57;;;;;;;2.83;2.05;;;;;;;21.89;34.32;102296.84;4998651;28;20212;-71
2022/03/14 09:36:23;;;;;;;3.53;1.95;;;;;;;22.60;33.40;102292.97;4967377;28;20226;-65
2022/03/14 09:38:49;;;;;;;2.80;1.90;;;;;;;23.00;32.43;102265.69;5007467;28;20805;-68
2022/03/14 09:41:18;;;;;;;2.63;1.85;;;;;;;23.45;32.18;102296.22;5004130;28;20049;-79
2022/03/14 09:43:47;;;;;;;2.80;2.13;;;;;;;23.45;32.28;102302.34;5003119;28;20041;-76
2022/03/14 09:46:14;;;;;;;2.00;1.83;;;;;;;23.29;32.47;102289.06;5013857;28;20083;-78
2022/03/14 09:48:49;;;;;;;2.60;1.92;;;;;;;23.56;32.45;102303.00;4989240;28;20442;-69
2022/03/14 09:51:17;;;;;;;2.15;1.95;;;;;;;23.61;32.15;102309.50;4999132;28;20573;-69
2022/03/14 09:53:44;;;;;;;2.10;1.75;;;;;;;23.48;32.42;102309.16;5008267;28;20385;-69
2022/03/14 09:56:10;;;;;;;2.42;1.92;;;;;;;23.29;32.96;102318.31;4982113;28;20498;-71
2022/03/14 09:58:36;;;;;;;1.83;1.65;;;;;;;23.26;32.92;102302.69;5011969;28;20029;-71
2022/03/14 10:01:02;;;;;;;2.75;1.90;;;;;;;23.23;32.95;102316.34;4983122;28;20124;-72
2022/03/14 10:03:29;;;;;;;2.22;1.98;;;;;;;23.26;33.49;102323.13;4128353;28;10000631;-74
2022/03/14 10:05:56;;;;;;;3.35;1.70;;;;;;;23.26;33.10;102334.59;4988384;28;20671;-80
2022/03/14 10:08:22;;;;;;;2.88;1.85;;;;;;;23.32;33.42;102333.09;5017667;28;20044;-78
2022/03/14 10:10:48;;;;;;;2.58;1.98;;;;;;;22.97;33.69;102339.53;4987663;28;20083;-69
2022/03/14 10:13:16;;;;;;;7.35;4.30;;;;;;;22.66;34.71;102341.97;5014594;28;20041;-68
2022/03/14 10:15:42;;;;;;;3.13;2.30;;;;;;;22.76;34.79;102338.16;4982306;28;24585;-66
2022/03/14 10:18:15;;;;;;;6.65;2.92;;;;;;;22.54;35.48;102358.19;5015380;28;20661;-67
2022/03/14 10:21:14;;;;;;;2.88;2.35;;;;;;;22.53;35.03;102359.19;4983833;28;20821;-68
2022/03/14 10:23:43;;;;;;;3.22;2.13;;;;;;;22.71;34.89;102356.41;4946900;28;20058;-72
2022/03/14 10:26:16;;;;;;;2.92;2.30;;;;;;;22.90;34.53;102366.78;5006282;28;20048;-69
2022/03/14 10:28:41;;;;;;;2.28;1.98;;;;;;;;;;4974539;28;20167;-69
2022/03/14 10:31:07;;;;;;;3.42;2.45;;;;;;;22.89;34.42;102351.84;5018511;28;20733;-68
2022/03/14 10:33:34;;;;;;;3.08;2.22;;;;;;;23.02;34.28;102371.78;4984340;28;20038;-75
2022/03/14 10:36:00;;;;;;;3.55;2.20;;;;;;;23.09;34.26;102375.44;5013959;28;20061;-71
2022/03/14 10:38:27;;;;;;;5.03;1.90;;;;;;;22.89;34.42;102348.34;4972691;28;20280;-70
2022/03/14 10:40:56;;;;;;;3.38;1.88;;;;;;;23.08;34.34;102389.72;5008177;28;20079;-69
2022/03/14 10:43:33;;;;;;;2.75;2.03;;;;;;;23.08;34.33;102377.25;5010975;28;20061;-68
2022/03/14 10:46:00;;;;;;;3.00;2.00;;;;;;;23.11;34.29;102394.69;5016719;28;20061;-68
2022/03/14 10:48:43;;;;;;;2.70;2.10;;;;;;;23.12;34.07;102385.75;5012568;28;20092;-72
2022/03/14 10:51:18;;;;;;;2.47;1.85;;;;;;;23.08;33.93;102393.22;5014732;28;20041;-71
2022/03/14 10:53:45;;;;;;;2.65;1.90;;;;;;;23.13;34.37;102387.41;5014740;28;20050;-72
2022/03/14 10:56:13;;;;;;;2.45;1.85;;;;;;;23.13;33.97;102387.41;4985711;28;20056;-72
2022/03/14 10:58:39;;;;;;;2.00;1.80;;;;;;;23.12;34.33;102388.41;5001636;28;20911;-71
2022/03/14 11:01:09;;;;;;;2.15;1.90;;;;;;;22.38;35.67;102382.00;5002007;28;20329;-67
2022/03/14 11:03:45;;;;;;;1.70;1.60;;;;;;;22.02;36.28;102399.84;4992078;28;20591;-67
2022/03/14 11:06:16;;;;;;;2.67;2.10;;;;;;;21.84;36.72;102388.47;5007000;28;20060;-70
2022/03/14 11:08:51;;;;;;;3.00;1.95;;;;;;;21.86;36.96;102397.09;4986596;28;20134;-70
2022/03/14 11:11:23;;;;;;;2.58;2.08;;;;;;;21.82;36.77;102403.69;4997061;28;20042;-68
2022/03/14 11:13:57;;;;;;;2.10;1.90;;;;;;;21.80;36.88;102401.22;5008490;28;20088;-69
2022/03/14 11:16:26;;;;;;;1.90;1.70;;;;;;;21.73;36.97;102407.28;5000069;28;20049;-66
2022/03/14 11:18:53;;;;;;;2.40;1.90;;;;;;;21.63;37.21;102418.81;4971091;28;20087;-66
2022/03/14 11:21:21;;;;;;;3.10;2.00;;;;;;;21.60;37.31;102420.94;4999920;28;20037;-65
2022/03/14 11:23:49;;;;;;;7.15;2.65;;;;;;;21.55;37.20;102423.22;4966687;28;20118;-66
2022/03/14 11:26:19;;;;;;;2.50;1.98;;;;;;;21.50;37.08;102422.81;4996779;28;20038;-67